Latest Weather Observations for Coffs Harbour

IDN60801

Issued at 9:35 pm EST Sunday 21 September 2014 (issued every 30 minutes, with the page automatically refreshed every 10 minutes)

About weather observations | Map of weather stations | Latest weather observations for NSW | Other Formats
Station Details ID: 059040 Name: COFFS HARBOUR MO Lat: -30.31 Lon: 153.12 Height: 5.0 m
Data from the previous 72 hours. | See also: Recent months at Coffs Harbour
Date/Time
EST
Temp
°C
App
Temp
°C
Dew
Point
Rel
Hum
%
Delta-T
°C
Wind Press
QNH
hPa
Press
MSL
hPa
Rain
since 9 am
mm
Dir
 
Spd
km/h
Gust
km/h
Spd
kts
Gust
kts
21/09:30pm 13.1 12.2 11.2 88 1.0 SW 7 9 4 5 1029.8 - 1.6
21/09:00pm 13.6 11.8 10.9 84 1.4 SW 11 13 6 7 1029.6 1029.7 1.6
21/08:30pm 14.0 12.6 10.9 81 1.6 WSW 9 13 5 7 1029.4 - 1.6
21/08:00pm 15.2 12.1 10.4 73 2.5 SSE 17 26 9 14 1029.1 - 1.6
21/07:30pm 16.9 13.1 8.9 59 4.1 SSE 19 24 10 13 1028.7 - 1.6
21/07:00pm 17.3 14.0 9.6 60 4.0 SSE 17 22 9 12 1028.3 - 1.6
21/06:30pm 17.1 13.7 9.1 59 4.1 SSE 17 24 9 13 1027.9 - 1.6
21/06:00pm 17.1 13.4 8.0 55 4.6 SSE 17 24 9 13 1027.7 1027.8 1.6
21/05:30pm 17.2 13.1 8.6 57 4.4 SSE 20 28 11 15 1027.4 - 1.6
21/05:00pm 17.9 13.9 8.3 53 4.9 SE 19 26 10 14 1027.6 - 1.6
21/04:30pm 18.0 13.8 8.4 53 4.9 SSE 20 32 11 17 1027.4 - 1.6
21/04:00pm 17.6 13.1 10.2 62 3.9 SSE 24 32 13 17 1027.1 - 1.6
21/03:30pm 18.3 13.5 9.0 54 4.8 S 24 33 13 18 1026.9 - 1.6
21/03:00pm 17.9 14.3 10.4 61 4.0 SE 20 26 11 14 1026.9 1027.0 1.6
21/02:30pm 17.9 12.9 9.5 58 4.4 S 26 33 14 18 1026.9 - 1.6
21/02:00pm 17.5 12.1 9.6 60 4.1 S 28 35 15 19 1026.9 - 1.6
21/01:50pm 17.1 11.9 10.1 63 3.7 S 28 37 15 20 1026.8 - 1.6
21/01:31pm 16.1 12.7 11.2 72 2.6 SSE 20 39 11 21 1027.4 - 1.2
21/01:30pm 16.3 12.8 11.0 71 2.8 SSE 20 39 11 21 1027.5 - 0.8
21/01:08pm 17.7 13.0 12.0 69 3.1 S 28 50 15 27 1027.3 - 0.0
21/01:00pm 16.9 13.7 11.9 72 2.7 S 20 30 11 16 1027.1 - 0.0
21/12:30pm 17.3 14.4 12.8 75 2.5 SE 20 28 11 15 1027.3 - 0.0
21/12:00pm 18.2 14.0 12.4 69 3.2 SSE 26 35 14 19 1027.8 1027.9 0.0
21/11:30am 19.6 14.7 10.0 54 5.1 S 26 33 14 18 1028.0 - 0.0
21/11:00am 19.9 14.6 9.7 51 5.4 S 28 33 15 18 1028.4 - 0.0
21/10:30am 18.2 13.0 8.7 54 4.9 S 26 33 14 18 1028.8 - 0.0
21/10:00am 18.9 14.0 8.4 50 5.4 S 24 35 13 19 1028.6 - 0.0
21/09:30am 17.6 13.8 9.1 57 4.4 SW 19 28 10 15 1028.7 - 0.0
21/09:00am 16.6 12.3 7.8 56 4.4 SW 20 28 11 15 1028.5 1028.6 0.0
21/08:30am 16.5 12.1 7.2 54 4.6 SW 20 30 11 16 1028.7 - 0.0
21/08:00am 17.0 12.6 7.3 53 4.8 SW 20 26 11 14 1028.3 - 0.0
21/07:30am 16.3 11.8 6.9 53 4.6 WSW 20 28 11 15 1027.9 - 0.0
21/07:00am 14.9 10.8 7.8 62 3.5 WSW 19 28 10 15 1027.7 - 0.0
21/06:30am 13.4 10.4 7.9 69 2.7 SW 13 19 7 10 1027.1 - 0.0
21/06:00am 12.4 9.0 7.6 72 2.3 WSW 15 19 8 10 1027.0 1027.1 0.0
21/05:30am 13.2 9.4 7.7 69 2.7 SW 17 19 9 10 1026.6 - 0.0
21/05:00am 13.7 9.9 7.6 66 3.0 WSW 17 22 9 12 1026.1 - 0.0
21/04:30am 13.5 10.1 7.8 68 2.8 SW 15 19 8 10 1025.8 - 0.0
21/04:00am 13.6 9.9 8.1 69 2.7 WSW 17 22 9 12 1025.7 - 0.0
21/03:30am 13.8 10.1 8.1 68 2.8 WSW 17 22 9 12 1025.6 - 0.0
21/03:00am 13.7 10.4 8.2 69 2.7 WSW 15 20 8 11 1025.7 1025.8 0.0
21/02:30am 14.0 10.4 8.4 69 2.8 WSW 17 24 9 13 1025.9 - 0.0
21/02:00am 13.9 10.4 8.7 71 2.6 WSW 17 24 9 13 1026.1 - 0.0
21/01:30am 14.2 10.1 8.8 70 2.7 WSW 20 30 11 16 1026.0 - 0.0
21/01:00am 14.6 10.6 8.9 68 2.9 WSW 20 30 11 16 1026.2 - 0.0
21/12:30am 14.7 10.7 9.2 69 2.8 WSW 20 28 11 15 1026.2 - 0.0
21/12:00am 14.8 10.9 9.3 69 2.8 WSW 20 28 11 15 1026.4 1026.5 0.0
 
Date/Time
EST
Temp
°C
App
Temp
°C
Dew
Point
Rel
Hum
%
Delta-T
°C
Wind Press
QNH
hPa
Press
MSL
hPa
Rain
since 9 am
mm
Dir
 
Spd
km/h
Gust
km/h
Spd
kts
Gust
kts
20/11:30pm 15.0 11.3 9.3 68 2.9 WSW 19 26 10 14 1026.3 - 0.0
20/11:00pm 15.2 12.2 9.3 68 3.0 WSW 15 24 8 13 1026.4 - 0.0
20/10:30pm 15.2 11.8 9.1 67 3.1 WSW 17 28 9 15 1026.3 - 0.0
20/10:00pm 15.3 12.2 8.8 65 3.3 WSW 15 20 8 11 1026.1 - 0.0
20/09:30pm 14.5 10.9 8.3 66 3.1 WSW 17 24 9 13 1025.9 - 0.0
20/09:00pm 15.0 10.9 7.7 61 3.6 SW 19 26 10 14 1025.9 1026.0 0.0
20/08:30pm 15.2 11.4 7.7 61 3.7 SW 17 24 9 13 1025.8 - 0.0
20/08:00pm 15.1 12.1 7.8 61 3.6 SW 13 19 7 10 1025.6 - 0.0
20/07:30pm 15.4 12.9 8.0 61 3.7 WSW 11 15 6 8 1025.3 - 0.0
20/07:00pm 15.7 11.6 8.6 62 3.6 S 20 28 11 15 1024.8 - 0.0
20/06:30pm 16.9 12.8 8.0 55 4.5 S 19 28 10 15 1024.3 - 0.0
20/06:00pm 17.0 12.6 6.6 50 5.1 S 19 28 10 15 1023.8 1023.9 0.0
20/05:30pm 17.4 13.0 6.4 48 5.4 SSE 19 26 10 14 1023.1 - 0.0
20/05:00pm 18.3 13.7 5.5 43 6.2 SSE 19 26 10 14 1022.6 - 0.0
20/04:30pm 19.1 14.1 3.5 35 7.3 SSE 19 26 10 14 1022.2 - 0.0
20/04:00pm 19.4 14.4 1.1 29 8.2 SE 17 22 9 12 1022.0 - 0.0
20/03:30pm 19.8 15.0 0.4 27 8.6 SE 15 19 8 10 1021.6 - 0.0
20/03:00pm 20.0 15.9 4.1 35 7.6 SE 15 17 8 9 1021.4 1021.5 0.0
20/02:30pm 19.7 15.6 4.5 36 7.3 SE 15 19 8 10 1021.3 - 0.0
20/02:00pm 19.5 16.2 6.2 42 6.6 SSE 13 19 7 10 1021.3 - 0.0
20/01:30pm 19.4 15.3 6.3 42 6.5 SE 17 20 9 11 1021.5 - 0.0
20/01:00pm 19.6 15.3 6.9 43 6.4 SE 19 22 10 12 1021.7 - 0.0
20/12:30pm 19.4 15.6 7.4 45 6.1 SE 17 20 9 11 1022.1 - 0.0
20/12:00pm 18.8 14.9 7.0 46 5.9 SE 17 19 9 10 1022.4 1022.5 0.0
20/11:30am 19.3 15.4 7.2 45 6.1 SSE 17 22 9 12 1022.8 - 0.0
20/11:00am 19.4 15.7 7.9 47 5.9 S 17 20 9 11 1023.2 - 0.0
20/10:30am 19.1 15.3 7.4 46 5.9 S 17 20 9 11 1023.3 - 0.0
20/10:00am 19.1 15.9 8.4 50 5.5 SSE 15 19 8 10 1023.4 - 0.0
20/09:30am 18.5 15.5 7.6 49 5.5 SW 13 17 7 9 1023.5 - 0.0
20/09:00am 18.0 14.8 8.4 53 4.9 WSW 15 20 8 11 1023.3 1023.4 0.6
20/08:30am 17.5 14.4 9.0 57 4.4 WSW 15 19 8 10 1023.3 - 0.6
20/08:00am 16.2 14.6 10.1 67 3.2 WSW 9 13 5 7 1023.2 - 0.6
20/07:30am 14.6 13.9 10.2 75 2.3 WSW 4 7 2 4 1023.0 - 0.6
20/07:00am 12.8 11.9 11.3 91 0.8 WNW 7 7 4 4 1022.6 - 0.6
20/06:30am 11.4 9.9 10.6 95 0.4 SW 9 9 5 5 1022.2 - 0.6
20/06:00am 10.0 9.8 9.2 95 0.4 CALM 0 0 0 0 1021.7 1021.8 0.6
20/05:30am 10.0 8.8 9.4 96 0.3 SW 6 9 3 5 1021.6 - 0.6
20/05:00am 10.7 10.3 9.9 95 0.4 WSW 2 7 1 4 1021.2 - 0.6
20/04:30am 11.3 10.3 10.3 94 0.5 WNW 6 7 3 4 1020.6 - 0.6
20/04:00am 11.9 10.5 10.9 94 0.5 SW 9 13 5 7 1020.3 - 0.6
20/03:30am 12.3 12.7 11.3 94 0.5 CALM 0 0 0 0 1020.5 - 0.6
20/03:00am 12.3 12.3 11.3 94 0.5 W 2 6 1 3 1020.3 1020.4 0.6
20/02:30am 12.1 10.7 10.9 92 0.6 WSW 9 13 5 7 1020.2 - 0.6
20/02:00am 12.2 9.7 11.0 92 0.6 WSW 15 19 8 10 1020.5 - 0.6
20/01:30am 11.5 9.3 10.7 95 0.4 SW 13 15 7 8 1020.6 - 0.6
20/01:00am 11.8 10.4 10.8 94 0.5 SW 9 13 5 7 1020.7 - 0.6
20/12:30am 12.4 11.5 11.3 93 0.6 WSW 7 11 4 6 1021.0 - 0.6
20/12:00am 13.1 11.1 11.4 89 0.9 SW 13 17 7 9 1021.2 1021.3 0.6
 
Date/Time
EST
Temp
°C
App
Temp
°C
Dew
Point
Rel
Hum
%
Delta-T
°C
Wind Press
QNH
hPa
Press
MSL
hPa
Rain
since 9 am
mm
Dir
 
Spd
km/h
Gust
km/h
Spd
kts
Gust
kts
19/11:30pm 13.3 11.5 12.0 92 0.7 WSW 13 20 7 11 1021.2 - 0.6
19/11:00pm 13.3 12.2 11.8 91 0.8 SW 9 13 5 7 1021.1 - 0.6
19/10:30pm 13.6 11.7 11.9 89 0.9 SW 13 15 7 8 1021.3 - 0.6
19/10:00pm 13.9 12.4 12.0 88 1.0 SSW 11 15 6 8 1021.6 - 0.6
19/09:30pm 14.3 12.7 11.7 84 1.4 SW 11 17 6 9 1021.2 - 0.6
19/09:00pm 14.8 13.7 13.0 89 1.0 W 11 15 6 8 1021.0 1021.1 0.4
19/08:30pm 15.0 14.2 13.0 88 1.1 W 9 11 5 6 1020.8 - 0.2
19/08:00pm 14.9 15.1 13.1 89 1.0 WNW 4 9 2 5 1020.9 - 0.2
19/07:30pm 14.9 14.8 13.3 90 0.9 WNW 6 7 3 4 1020.7 - 0.2
19/07:00pm 14.9 14.8 13.3 90 0.9 SW 6 9 3 5 1020.2 - 0.2
19/06:30pm 14.9 14.7 13.1 89 1.0 W 6 9 3 5 1019.7 - 0.2
19/06:00pm 14.7 14.3 12.9 89 1.0 E 7 9 4 5 1019.2 1019.3 0.2
19/05:30pm 16.1 14.9 12.8 81 1.8 ESE 11 15 6 8 1018.9 - 0.2
19/05:00pm 17.7 16.4 11.4 66 3.4 ESE 9 13 5 7 1018.8 - 0.0
19/04:30pm 18.0 16.2 10.7 62 3.9 ESE 11 13 6 7 1018.6 - 0.0
19/04:00pm 18.3 16.5 10.7 61 4.1 ESE 11 17 6 9 1018.3 - 0.0
19/03:30pm 18.4 16.1 10.6 60 4.2 E 13 19 7 10 1018.0 - 0.0
19/03:00pm 18.4 16.1 10.6 60 4.2 E 13 19 7 10 1017.9 1018.0 0.0
19/02:30pm 19.0 16.3 10.2 56 4.7 ESE 15 22 8 12 1018.0 - 0.0
19/02:00pm 18.6 15.9 10.2 58 4.5 ESE 15 20 8 11 1018.4 - 0.0
19/01:30pm 18.6 15.8 9.9 57 4.6 ESE 15 20 8 11 1018.7 - 0.0
19/01:00pm 18.9 16.5 10.1 56 4.7 SE 13 19 7 10 1019.2 - 0.0
19/12:30pm 18.1 15.5 9.3 56 4.6 SE 13 19 7 10 1019.8 - 0.0
19/12:00pm 18.1 15.5 9.5 57 4.5 SE 13 19 7 10 1020.3 1020.4 0.0
19/11:30am 18.3 15.2 8.8 54 4.9 SSE 15 19 8 10 1020.5 - 0.0
19/11:00am 18.6 15.2 9.2 54 4.9 SSE 17 20 9 11 1020.9 - 0.0
19/10:30am 16.9 13.4 8.9 59 4.1 SE 17 19 9 10 1021.3 - 0.0
19/10:00am 17.9 14.9 7.8 51 5.1 SSE 13 19 7 10 1021.6 - 0.0
19/09:30am 18.0 14.6 7.7 51 5.2 SSE 15 19 8 10 1021.9 - 0.0
19/09:00am 15.1 11.9 6.7 57 4.1 S 13 19 7 10 1022.1 1022.2 0.0
19/08:30am 16.5 13.5 7.7 56 4.4 SW 13 17 7 9 1022.3 - 0.0
19/08:00am 15.5 13.1 8.8 64 3.4 SW 11 15 6 8 1022.3 - 0.0
19/07:30am 13.4 12.0 9.5 77 2.0 W 7 7 4 4 1022.1 - 0.0
19/07:00am 11.0 9.9 9.8 92 0.6 W 6 7 3 4 1021.9 - 0.0
19/06:30am 8.6 6.8 7.8 95 0.4 W 7 7 4 4 1021.6 - 0.0
19/06:00am 6.8 4.5 5.9 94 0.4 W 7 7 4 4 1021.2 1021.3 0.0
19/05:30am 7.1 5.2 6.7 97 0.2 W 6 7 3 4 1021.0 - 0.0
19/05:00am 6.8 4.6 6.4 97 0.2 W 7 9 4 5 1020.8 - 0.0
19/04:30am 7.5 5.4 6.6 94 0.4 W 7 9 4 5 1020.4 - 0.0
19/04:00am 7.4 5.3 6.7 95 0.3 W 7 7 4 4 1020.3 - 0.0
19/03:30am 7.4 6.2 6.5 94 0.4 W 2 7 1 4 1020.2 - 0.0
19/03:00am 7.5 5.4 6.8 95 0.3 W 7 9 4 5 1020.3 1020.4 0.0
19/02:30am 8.1 6.7 7.2 94 0.4 NW 4 7 2 4 1020.3 - 0.0
19/02:00am 8.2 6.8 7.1 93 0.5 NW 4 6 2 3 1020.6 - 0.0
19/01:30am 8.7 6.8 7.6 93 0.5 NW 7 7 4 4 1020.6 - 0.0
19/01:00am 8.9 7.0 7.6 91 0.6 NW 7 9 4 5 1020.8 - 0.0
19/12:30am 9.0 8.0 7.5 90 0.7 WNW 2 6 1 3 1020.8 - 0.0
19/12:00am 9.0 7.7 7.5 90 0.7 NW 4 9 2 5 1020.9 1021.0 0.0
 
Date/Time
EST
Temp
°C
App
Temp
°C
Dew
Point
Rel
Hum
%
Delta-T
°C
Wind Press
QNH
hPa
Press
MSL
hPa
Rain
since 9 am
mm
Dir
 
Spd
km/h
Gust
km/h
Spd
kts
Gust
kts
18/11:30pm 9.0 7.3 7.5 90 0.7 NW 6 7 3 4 1021.1 - 0.0
18/11:00pm 9.1 8.5 7.6 90 0.7 CALM 0 0 0 0 1021.2 - 0.0
18/10:30pm 9.9 8.1 8.0 88 0.9 NW 7 9 4 5 1021.1 - 0.0
18/10:00pm 10.1 8.5 7.8 86 1.1 W 6 9 3 5 1020.9 - 0.0

Other Formats:

Comma delimited format used in spreadsheet applications
http://www.bom.gov.au/fwo/IDN60801/IDN60801.94791.axf

JavaScript Object Notation format (JSON) in row-major order
http://www.bom.gov.au/fwo/IDN60801/IDN60801.94791.json